ěÝzenÝ letovÚho provozu ╚eskÚ republiky
Letiste: LKCR Aktualizace: 12.07.2024 22:30:40  UTC
 METAR LKCR 12.07. 22:30 ...
METAR LKCR 122230Z AUTO VRB01KT 9999 FEW055 SCT071 BKN130 19/17 Q1009=